createdAt,value
2022-12-19T00:01:22.125Z,36.76
2022-12-19T00:03:58.129Z,36.63
2022-12-19T00:06:26.011Z,36.53
2022-12-19T00:08:54.063Z,36.44
2022-12-19T00:11:22.566Z,36.26
2022-12-19T00:13:49.287Z,36.22
2022-12-19T00:16:19.137Z,36.08
2022-12-19T00:18:47.413Z,35.98
2022-12-19T00:21:16.499Z,35.88
2022-12-19T00:23:43.495Z,35.86
2022-12-19T00:26:13.631Z,35.75
2022-12-19T00:28:42.275Z,35.54
2022-12-19T00:31:10.035Z,35.53
2022-12-19T00:33:36.616Z,35.46
2022-12-19T00:36:10.943Z,35.25
2022-12-19T00:38:38.700Z,35.15
2022-12-19T00:41:19.918Z,35.11
2022-12-19T00:43:51.208Z,34.93
2022-12-19T00:46:17.841Z,34.88
2022-12-19T00:48:44.415Z,34.77
2022-12-19T00:51:16.522Z,34.67
2022-12-19T00:53:43.394Z,34.65
2022-12-19T00:56:16.504Z,34.48
2022-12-19T00:58:47.148Z,34.36
2022-12-19T01:01:19.544Z,34.25
2022-12-19T01:04:18.613Z,34.32
2022-12-19T01:06:34.302Z,34.15
2022-12-19T01:09:01.042Z,34.03
2022-12-19T01:12:03.151Z,34.05
2022-12-19T01:14:29.805Z,33.86
2022-12-19T01:16:56.314Z,33.88
2022-12-19T01:19:26.955Z,33.87
2022-12-19T01:21:53.664Z,33.74
2022-12-19T01:24:20.187Z,33.54
2022-12-19T01:26:49.420Z,33.65
2022-12-19T01:29:16.075Z,33.47
2022-12-19T01:31:42.656Z,34.01
2022-12-19T01:34:09.319Z,34.24
2022-12-19T01:36:38.592Z,34.69
2022-12-19T01:39:07.242Z,35.50
2022-12-19T01:41:33.872Z,35.85
2022-12-19T01:44:06.523Z,36.23
2022-12-19T01:46:40.414Z,37.10
2022-12-19T01:49:16.041Z,38.58
2022-12-19T01:51:48.131Z,40.66
2022-12-19T01:54:24.343Z,41.43
2022-12-19T01:56:55.301Z,41.19
2022-12-19T01:59:57.044Z,40.70
2022-12-19T02:02:30.993Z,40.00
2022-12-19T02:04:57.724Z,39.46
2022-12-19T02:07:26.202Z,38.93
2022-12-19T02:09:56.870Z,38.57
2022-12-19T02:12:33.827Z,38.17
2022-12-19T02:15:03.237Z,37.81
2022-12-19T02:17:38.045Z,37.46
2022-12-19T02:20:20.612Z,37.13
2022-12-19T02:23:32.369Z,36.78
2022-12-19T02:26:37.342Z,36.63
2022-12-19T02:29:24.925Z,36.45
2022-12-19T02:32:02.385Z,36.06
2022-12-19T02:34:51.428Z,35.89
2022-12-19T02:37:23.319Z,35.66
2022-12-19T02:40:02.574Z,35.75
2022-12-19T02:42:40.199Z,35.45
2022-12-19T02:45:09.916Z,35.36
2022-12-19T02:47:38.028Z,35.16
2022-12-19T02:50:07.473Z,34.99
2022-12-19T02:52:34.581Z,34.87
2022-12-19T02:55:13.081Z,34.82
2022-12-19T02:58:13.503Z,34.75
2022-12-19T03:00:54.218Z,34.58
2022-12-19T03:03:38.082Z,34.59
2022-12-19T03:06:42.461Z,34.40
2022-12-19T03:09:37.129Z,34.47
2022-12-19T03:12:14.084Z,34.44
2022-12-19T03:14:45.418Z,34.29
2022-12-19T03:17:12.059Z,34.42
2022-12-19T03:19:40.876Z,34.24
2022-12-19T03:22:08.041Z,34.32
2022-12-19T03:24:34.729Z,34.30
2022-12-19T03:27:08.198Z,34.24
2022-12-19T03:29:43.505Z,34.21
2022-12-19T03:32:13.680Z,34.20
2022-12-19T03:34:55.558Z,34.23
2022-12-19T03:37:26.210Z,34.13
2022-12-19T03:39:58.797Z,34.23
2022-12-19T03:42:47.691Z,34.23
2022-12-19T03:45:30.734Z,34.18
2022-12-19T03:48:03.909Z,34.10
2022-12-19T03:50:38.520Z,34.02
2022-12-19T03:53:20.089Z,34.20
2022-12-19T03:55:54.533Z,34.20
2022-12-19T03:58:30.245Z,33.99
2022-12-19T04:00:58.294Z,34.02
2022-12-19T04:03:25.563Z,34.15
2022-12-19T04:05:53.748Z,34.18
2022-12-19T04:08:21.288Z,34.02
2022-12-19T04:10:51.671Z,34.03
2022-12-19T04:13:25.025Z,33.94
2022-12-19T04:16:04.414Z,34.25
2022-12-19T04:18:31.627Z,34.21
2022-12-19T04:21:22.268Z,34.04
2022-12-19T04:23:55.783Z,34.21
2022-12-19T04:26:24.006Z,34.25
2022-12-19T04:28:57.604Z,34.18
2022-12-19T04:31:24.637Z,34.27
2022-12-19T04:33:51.211Z,34.38
2022-12-19T04:36:17.867Z,34.36
2022-12-19T04:38:44.451Z,34.41
2022-12-19T04:41:11.035Z,34.29
2022-12-19T04:43:37.626Z,34.25
2022-12-19T04:46:04.249Z,34.31
2022-12-19T04:48:30.812Z,34.16
2022-12-19T04:50:57.510Z,34.12
2022-12-19T04:53:24.125Z,34.12
2022-12-19T04:55:50.755Z,34.18
2022-12-19T04:58:21.938Z,34.06
2022-12-19T05:00:49.219Z,34.14
2022-12-19T05:03:15.744Z,34.34
2022-12-19T05:05:42.364Z,34.28
2022-12-19T05:08:09.373Z,34.44
2022-12-19T05:10:37.418Z,34.48
2022-12-19T05:13:03.961Z,34.46
2022-12-19T05:15:30.589Z,34.39
2022-12-19T05:17:57.562Z,34.20
2022-12-19T05:20:24.343Z,34.17
2022-12-19T05:22:50.827Z,34.03
2022-12-19T05:25:17.427Z,34.11
2022-12-19T05:27:44.052Z,33.93
2022-12-19T05:30:11.246Z,33.82
2022-12-19T05:32:37.770Z,33.88
2022-12-19T05:35:04.648Z,33.66
2022-12-19T05:37:31.149Z,33.59
2022-12-19T05:39:57.709Z,33.71
2022-12-19T05:42:26.258Z,33.81
2022-12-19T05:44:52.877Z,33.93
2022-12-19T05:47:20.389Z,33.93
2022-12-19T05:49:47.459Z,33.94
2022-12-19T05:52:14.004Z,34.06
2022-12-19T05:54:40.619Z,34.23
2022-12-19T05:57:07.271Z,34.01
2022-12-19T05:59:33.824Z,34.09
2022-12-19T06:02:00.501Z,34.11
2022-12-19T06:04:27.212Z,34.39
2022-12-19T06:06:54.320Z,34.42
2022-12-19T06:09:21.129Z,34.26
2022-12-19T06:11:48.138Z,34.41
2022-12-19T06:14:14.710Z,34.40
2022-12-19T06:16:41.358Z,34.13
2022-12-19T06:19:08.967Z,34.10
2022-12-19T06:21:35.463Z,33.86
2022-12-19T06:24:02.022Z,33.77
2022-12-19T06:26:28.684Z,33.63
2022-12-19T06:28:55.774Z,33.74
2022-12-19T06:31:24.711Z,33.75
2022-12-19T06:33:51.683Z,33.66
2022-12-19T06:36:23.870Z,33.44
2022-12-19T06:38:51.549Z,33.46
2022-12-19T06:41:37.437Z,33.64
2022-12-19T06:44:07.511Z,33.71
2022-12-19T06:46:35.288Z,33.77
2022-12-19T06:49:02.247Z,33.97
2022-12-19T06:51:29.109Z,33.78
2022-12-19T06:53:55.808Z,33.75
2022-12-19T06:56:22.897Z,33.67
2022-12-19T06:58:50.481Z,33.85
2022-12-19T07:01:25.047Z,33.63
2022-12-19T07:03:52.253Z,33.50
2022-12-19T07:06:20.374Z,33.89
2022-12-19T07:08:47.411Z,34.09
2022-12-19T07:11:13.946Z,34.14
2022-12-19T07:13:40.635Z,34.19
2022-12-19T07:16:08.374Z,34.21
2022-12-19T07:18:39.880Z,34.23
2022-12-19T07:21:07.774Z,34.01
2022-12-19T07:23:35.157Z,33.76
2022-12-19T07:26:01.861Z,33.65
2022-12-19T07:28:28.431Z,33.56
2022-12-19T07:30:55.833Z,33.47
2022-12-19T07:33:22.391Z,33.59
2022-12-19T07:35:49.107Z,33.31
2022-12-19T07:38:15.618Z,33.25
2022-12-19T07:40:42.328Z,33.11
2022-12-19T07:43:08.855Z,33.00
2022-12-19T07:45:38.542Z,33.06
2022-12-19T07:48:08.065Z,33.03
2022-12-19T07:50:34.803Z,32.92
2022-12-19T07:53:01.780Z,32.86
2022-12-19T07:55:28.866Z,32.92
2022-12-19T07:57:55.555Z,32.79
2022-12-19T08:00:22.966Z,32.85
2022-12-19T08:02:49.747Z,32.90
2022-12-19T08:05:16.661Z,32.84
2022-12-19T08:07:43.206Z,32.75
2022-12-19T08:10:11.527Z,32.79
2022-12-19T08:12:38.261Z,32.72
2022-12-19T08:15:05.898Z,32.68
2022-12-19T08:17:34.536Z,32.72
2022-12-19T08:20:01.258Z,32.78
2022-12-19T08:22:29.682Z,32.74
2022-12-19T08:24:57.470Z,32.70
2022-12-19T08:27:24.130Z,32.74
2022-12-19T08:29:51.008Z,32.57
2022-12-19T08:32:21.142Z,32.47
2022-12-19T08:34:49.009Z,32.38
2022-12-19T08:37:15.637Z,32.37
2022-12-19T08:39:42.212Z,32.41
2022-12-19T08:42:08.878Z,32.57
2022-12-19T08:44:35.382Z,32.55
2022-12-19T08:47:02.664Z,32.29
2022-12-19T08:49:29.485Z,32.54
2022-12-19T08:51:56.103Z,32.37
2022-12-19T08:54:22.847Z,32.09
2022-12-19T08:56:49.484Z,31.87
2022-12-19T08:59:21.101Z,31.83
2022-12-19T09:01:56.895Z,31.74
2022-12-19T09:06:00.266Z,31.93
2022-12-19T09:07:10.221Z,32.27
2022-12-19T09:09:36.725Z,32.38
2022-12-19T09:12:03.448Z,32.44
2022-12-19T09:14:33.756Z,32.47
2022-12-19T09:17:01.495Z,32.46
2022-12-19T09:19:30.616Z,32.52
2022-12-19T09:21:57.203Z,32.59
2022-12-19T09:24:23.815Z,32.74
2022-12-19T09:26:50.333Z,32.71
2022-12-19T09:29:20.007Z,32.77
2022-12-19T09:31:56.501Z,32.83
2022-12-19T09:34:33.495Z,32.77
2022-12-19T09:37:16.975Z,32.88
2022-12-19T09:39:46.078Z,32.88
2022-12-19T09:42:21.150Z,32.95
2022-12-19T09:44:50.675Z,32.79
2022-12-19T09:47:29.127Z,32.90
2022-12-19T09:49:59.051Z,32.45
2022-12-19T09:52:45.911Z,32.30
2022-12-19T09:55:24.355Z,32.24
2022-12-19T09:58:21.905Z,32.19
2022-12-19T10:01:02.023Z,32.18
2022-12-19T10:03:40.523Z,32.15
2022-12-19T10:07:08.711Z,31.94
2022-12-19T10:11:26.539Z,31.75
2022-12-19T10:12:46.000Z,31.70
2022-12-19T10:15:25.863Z,31.64
2022-12-19T10:18:01.198Z,31.52
2022-12-19T10:20:34.148Z,31.48
2022-12-19T10:23:15.929Z,31.30
2022-12-19T10:25:51.424Z,31.48
2022-12-19T10:28:39.295Z,31.25
2022-12-19T10:31:29.982Z,30.98
2022-12-19T10:34:31.620Z,30.93
2022-12-19T10:37:24.473Z,30.88
2022-12-19T10:40:26.478Z,30.85
2022-12-19T10:43:28.586Z,30.71
2022-12-19T10:46:03.895Z,30.76
2022-12-19T10:48:31.628Z,30.69
2022-12-19T10:50:58.718Z,30.55
2022-12-19T10:53:32.383Z,30.41
2022-12-19T10:56:13.006Z,30.49
2022-12-19T10:58:44.249Z,30.53
2022-12-19T11:01:15.379Z,30.65
2022-12-19T11:03:46.574Z,30.65
2022-12-19T11:06:49.964Z,30.90
2022-12-19T11:09:24.825Z,31.02
2022-12-19T11:16:44.061Z,31.11
2022-12-19T11:18:38.873Z,31.28
2022-12-19T11:28:26.786Z,31.39
2022-12-19T11:29:39.799Z,31.51
2022-12-19T11:30:05.878Z,31.83
2022-12-19T11:30:21.350Z,31.66
2022-12-19T11:32:44.826Z,31.87
2022-12-19T11:35:24.876Z,32.05
2022-12-19T11:37:58.408Z,32.02
2022-12-19T11:40:28.701Z,32.08
2022-12-19T11:43:41.993Z,32.03
2022-12-19T11:46:05.629Z,32.12
2022-12-19T11:48:49.797Z,32.31
2022-12-19T11:51:22.860Z,32.00
2022-12-19T11:54:14.320Z,31.61
2022-12-19T11:56:41.224Z,31.15
2022-12-19T11:59:16.704Z,30.99
2022-12-19T12:02:14.747Z,30.67
2022-12-19T12:04:41.340Z,30.42
2022-12-19T12:07:16.945Z,30.33
2022-12-19T12:12:50.841Z,30.02
2022-12-19T12:21:45.412Z,29.88
2022-12-19T12:27:34.773Z,30.10
2022-12-19T12:31:01.592Z,30.98
2022-12-19T12:31:21.758Z,31.70
2022-12-19T12:31:42.623Z,32.09
2022-12-19T12:32:04.825Z,32.08
2022-12-19T12:35:52.126Z,31.61
2022-12-19T12:38:39.891Z,31.02
2022-12-19T12:41:45.910Z,30.76
2022-12-19T12:44:13.631Z,30.43
2022-12-19T12:46:48.837Z,30.37
2022-12-19T12:49:33.566Z,30.28
2022-12-19T12:52:01.535Z,30.17
2022-12-19T12:54:34.280Z,30.03
2022-12-19T12:57:02.492Z,30.17
2022-12-19T12:59:31.611Z,30.04
2022-12-19T13:02:07.336Z,30.14
2022-12-19T13:04:42.023Z,30.07
2022-12-19T13:07:39.351Z,30.07
2022-12-19T13:10:20.942Z,30.22
2022-12-19T13:13:01.423Z,30.43
2022-12-19T13:15:27.960Z,30.83
2022-12-19T13:17:54.403Z,31.24
2022-12-19T13:20:24.067Z,31.47
2022-12-19T13:22:58.303Z,31.76
2022-12-19T13:25:34.123Z,31.88
2022-12-19T13:28:03.674Z,32.17
2022-12-19T13:30:32.144Z,32.44
2022-12-19T13:33:13.236Z,32.43
2022-12-19T13:39:29.235Z,32.56
2022-12-19T13:39:48.930Z,32.67
2022-12-19T13:41:48.158Z,32.83
2022-12-19T13:44:21.487Z,32.93
2022-12-19T13:46:50.832Z,32.98
2022-12-19T13:49:34.407Z,32.92
2022-12-19T13:52:02.817Z,32.98
2022-12-19T13:54:44.595Z,33.11
2022-12-19T13:57:23.111Z,32.97
2022-12-19T13:59:59.556Z,33.11
2022-12-19T14:02:32.587Z,33.17
2022-12-19T14:05:34.138Z,33.20
2022-12-19T14:08:19.369Z,33.24
2022-12-19T14:11:35.219Z,33.18
2022-12-19T14:14:08.130Z,33.36
2022-12-19T14:16:44.614Z,33.23
2022-12-19T14:19:17.968Z,33.29
2022-12-19T14:22:04.607Z,33.34
2022-12-19T14:24:31.202Z,33.44
2022-12-19T14:28:16.786Z,33.59
2022-12-19T14:30:30.381Z,33.53
2022-12-19T14:33:46.387Z,33.49
2022-12-19T14:36:07.996Z,33.50
2022-12-19T14:39:19.988Z,33.51
2022-12-19T14:41:47.783Z,33.40
2022-12-19T14:52:34.559Z,33.32
2022-12-19T14:54:01.416Z,33.32
2022-12-19T14:54:05.326Z,33.36
2022-12-19T14:54:40.480Z,33.32
2022-12-19T14:58:57.786Z,33.23
2022-12-19T15:01:31.062Z,33.39
2022-12-19T15:04:52.642Z,33.52
2022-12-19T15:07:08.731Z,33.49
2022-12-19T15:11:05.356Z,33.66
2022-12-19T15:14:51.002Z,33.62
2022-12-19T15:16:04.302Z,33.47
2022-12-19T15:18:33.759Z,33.64
2022-12-19T15:21:04.044Z,33.62
2022-12-19T15:23:31.316Z,33.46
2022-12-19T15:26:04.635Z,33.10
2022-12-19T15:28:43.059Z,32.80
2022-12-19T15:31:26.374Z,32.78
2022-12-19T15:34:32.869Z,32.74
2022-12-19T15:36:40.340Z,32.46
2022-12-19T15:39:06.856Z,32.45
2022-12-19T15:41:34.006Z,32.25
2022-12-19T15:44:10.122Z,32.17
2022-12-19T15:46:40.012Z,32.24
2022-12-19T15:49:16.579Z,32.20
2022-12-19T15:51:43.254Z,32.24
2022-12-19T15:54:38.698Z,32.25
2022-12-19T15:56:56.962Z,32.32
2022-12-19T15:59:45.311Z,32.29
2022-12-19T16:02:22.148Z,32.54
2022-12-19T16:04:50.964Z,32.72
2022-12-19T16:07:20.208Z,32.84
2022-12-19T16:09:47.650Z,32.88
2022-12-19T16:12:16.678Z,32.92
2022-12-19T16:14:45.205Z,33.03
2022-12-19T16:17:23.051Z,33.09
2022-12-19T16:19:50.736Z,33.14
2022-12-19T16:22:21.134Z,33.10
2022-12-19T16:24:48.520Z,33.10
2022-12-19T16:27:30.528Z,32.95
2022-12-19T16:30:02.938Z,32.77
2022-12-19T16:32:29.507Z,32.73
2022-12-19T16:34:56.024Z,32.83
2022-12-19T16:37:27.216Z,32.89
2022-12-19T16:39:56.922Z,32.56
2022-12-19T16:42:23.614Z,32.20
2022-12-19T16:44:53.600Z,31.85
2022-12-19T16:47:20.192Z,31.59
2022-12-19T16:49:46.817Z,31.42
2022-12-19T16:52:13.480Z,31.54
2022-12-19T16:54:40.065Z,31.36
2022-12-19T16:57:18.607Z,31.17
2022-12-19T16:59:45.302Z,31.08
2022-12-19T17:02:31.613Z,31.09
2022-12-19T17:04:58.346Z,30.95
2022-12-19T17:07:32.345Z,31.00
2022-12-19T17:09:58.955Z,31.05
2022-12-19T17:12:27.595Z,31.38
2022-12-19T17:14:54.441Z,31.77
2022-12-19T17:17:21.026Z,31.98
2022-12-19T17:19:47.688Z,32.19
2022-12-19T17:22:16.640Z,32.19
2022-12-19T17:24:47.505Z,32.40
2022-12-19T17:27:14.669Z,32.60
2022-12-19T17:29:41.220Z,32.57
2022-12-19T17:32:11.797Z,32.40
2022-12-19T17:34:38.392Z,32.78
2022-12-19T17:37:05.460Z,32.91
2022-12-19T17:39:34.163Z,33.01
2022-12-19T17:42:21.567Z,33.10
2022-12-19T17:44:48.615Z,33.16
2022-12-19T17:47:16.420Z,33.26
2022-12-19T17:49:43.565Z,33.18
2022-12-19T17:52:18.580Z,33.27
2022-12-19T17:54:45.668Z,33.24
2022-12-19T17:57:15.247Z,33.40
2022-12-19T17:59:42.262Z,33.45
2022-12-19T18:02:24.498Z,33.42
2022-12-19T18:04:52.766Z,33.13
2022-12-19T18:07:19.487Z,33.24
2022-12-19T18:09:46.294Z,33.19
2022-12-19T18:12:13.171Z,32.69
2022-12-19T18:14:39.779Z,32.48
2022-12-19T18:17:06.557Z,32.04
2022-12-19T18:19:34.316Z,31.84
2022-12-19T18:22:01.147Z,31.71
2022-12-19T18:24:27.793Z,31.66
2022-12-19T18:26:55.590Z,31.75
2022-12-19T18:29:22.444Z,31.71
2022-12-19T18:31:51.499Z,31.70
2022-12-19T18:34:24.198Z,31.76
2022-12-19T18:36:52.358Z,31.83
2022-12-19T18:39:25.704Z,31.96
2022-12-19T18:41:53.490Z,31.96
2022-12-19T18:44:22.734Z,32.11
2022-12-19T18:46:50.991Z,32.33
2022-12-19T18:49:17.792Z,32.32
2022-12-19T18:51:45.218Z,32.50
2022-12-19T18:54:15.657Z,32.67
2022-12-19T18:56:42.691Z,32.29
2022-12-19T18:59:09.330Z,31.36
2022-12-19T19:01:40.703Z,30.45
2022-12-19T19:04:08.856Z,29.94
2022-12-19T19:06:38.083Z,29.52
2022-12-19T19:09:13.035Z,29.45
2022-12-19T19:11:53.682Z,29.31
2022-12-19T19:14:20.344Z,29.41
2022-12-19T19:16:47.116Z,29.37
2022-12-19T19:19:17.905Z,29.56
2022-12-19T19:21:44.947Z,29.67
2022-12-19T19:24:20.495Z,29.70
2022-12-19T19:26:47.567Z,29.55
2022-12-19T19:29:14.874Z,29.55
2022-12-19T19:31:45.958Z,29.52
2022-12-19T19:34:18.127Z,29.48
2022-12-19T19:36:47.217Z,29.61
2022-12-19T19:39:14.043Z,29.65
2022-12-19T19:41:40.939Z,29.82
2022-12-19T19:44:07.666Z,29.83
2022-12-19T19:46:34.463Z,29.43
2022-12-19T19:49:01.161Z,29.58
2022-12-19T19:51:29.054Z,29.45
2022-12-19T19:53:58.703Z,29.52
2022-12-19T19:56:25.380Z,29.57
2022-12-19T19:58:52.685Z,29.68
2022-12-19T20:01:19.577Z,30.20
2022-12-19T20:03:46.571Z,30.81
2022-12-19T20:06:13.515Z,30.91
2022-12-19T20:08:40.970Z,31.04
2022-12-19T20:11:09.178Z,31.42
2022-12-19T20:13:36.503Z,31.53
2022-12-19T20:16:16.195Z,31.87
2022-12-19T20:18:48.050Z,32.02
2022-12-19T20:21:14.901Z,32.06
2022-12-19T20:23:45.277Z,31.91
2022-12-19T20:26:13.482Z,31.89
2022-12-19T20:28:47.751Z,31.73
2022-12-19T20:31:16.293Z,31.78
2022-12-19T20:33:42.957Z,31.56
2022-12-19T20:36:12.180Z,31.55
2022-12-19T20:38:39.635Z,31.34
2022-12-19T20:41:07.050Z,31.28
2022-12-19T20:43:34.291Z,31.27
2022-12-19T20:46:06.088Z,31.07
2022-12-19T20:48:33.558Z,31.04
2022-12-19T20:51:01.428Z,30.94
2022-12-19T20:53:28.557Z,30.93
2022-12-19T20:55:58.264Z,30.98
2022-12-19T20:58:27.614Z,30.88
2022-12-19T21:00:56.139Z,30.84
2022-12-19T21:03:28.982Z,30.94
2022-12-19T21:05:56.992Z,30.83
2022-12-19T21:08:24.713Z,30.77
2022-12-19T21:10:51.750Z,30.59
2022-12-19T21:13:18.726Z,30.62
2022-12-19T21:15:46.833Z,30.54
2022-12-19T21:20:42.228Z,30.67
2022-12-19T21:23:08.959Z,30.60
2022-12-19T21:25:35.496Z,30.55
2022-12-19T21:28:02.184Z,30.49
2022-12-19T21:30:28.714Z,30.46
2022-12-19T21:32:56.319Z,30.54
2022-12-19T21:35:23.061Z,30.49
2022-12-19T21:37:51.889Z,30.47
2022-12-19T21:40:19.444Z,30.45
2022-12-19T21:42:49.783Z,30.27
2022-12-19T21:45:16.706Z,30.39
2022-12-19T21:47:43.438Z,30.40
2022-12-19T21:50:14.554Z,30.50
2022-12-19T21:52:41.559Z,30.46
2022-12-19T21:55:09.418Z,30.33
2022-12-19T21:57:40.418Z,30.24
2022-12-19T22:00:10.284Z,30.30
2022-12-19T22:02:37.233Z,30.39
2022-12-19T22:05:05.308Z,30.39
2022-12-19T22:07:32.470Z,30.36
2022-12-19T22:09:59.030Z,30.40
2022-12-19T22:12:25.849Z,30.20
2022-12-19T22:14:52.651Z,30.45
2022-12-19T22:17:19.295Z,30.41
2022-12-19T22:19:46.479Z,30.27
2022-12-19T22:22:13.137Z,30.31
2022-12-19T22:24:39.754Z,30.32
2022-12-19T22:27:06.469Z,30.44
2022-12-19T22:29:36.429Z,30.65
2022-12-19T22:32:04.456Z,30.62
2022-12-19T22:34:31.174Z,30.79
2022-12-19T22:36:57.738Z,30.70
2022-12-19T22:39:24.519Z,30.60
2022-12-19T22:41:51.257Z,30.34
2022-12-19T22:44:23.295Z,30.35
2022-12-19T22:46:51.266Z,30.21
2022-12-19T22:49:18.241Z,30.11
2022-12-19T22:51:46.106Z,30.14
2022-12-19T22:54:13.592Z,29.99
2022-12-19T22:56:40.909Z,30.09
2022-12-19T22:59:10.091Z,29.82
2022-12-19T23:01:39.792Z,29.89
2022-12-19T23:04:08.682Z,29.81
2022-12-19T23:06:36.920Z,29.63
2022-12-19T23:09:06.217Z,29.71
2022-12-19T23:11:36.739Z,29.59
2022-12-19T23:14:06.127Z,29.56
2022-12-19T23:16:32.962Z,29.57
2022-12-19T23:18:59.607Z,29.44
2022-12-19T23:21:27.020Z,29.42
2022-12-19T23:23:55.236Z,29.39
2022-12-19T23:26:24.733Z,29.46
2022-12-19T23:28:55.530Z,29.43
2022-12-19T23:31:23.080Z,29.37
2022-12-19T23:33:50.023Z,29.36
2022-12-19T23:36:27.420Z,29.30
2022-12-19T23:39:03.880Z,29.38
2022-12-19T23:41:30.677Z,29.33
2022-12-19T23:43:57.263Z,29.20
2022-12-19T23:46:26.467Z,29.13
2022-12-19T23:48:54.064Z,29.08
2022-12-19T23:51:25.286Z,29.20
2022-12-19T23:53:53.170Z,29.17
2022-12-19T23:56:27.675Z,29.04
2022-12-19T23:58:55.474Z,29.19
